Time;durP1;ratioP1;P1;durP2;ratioP2;P2;SDS_P1;SDS_P2;PMS_P1;PMS_P2;Temp;Humidity;BMP_temperature;BMP_pressure;BME280_temperature;BME280_humidity;BME280_pressure;Samples;Min_cycle;Max_cycle;Signal;HPM_P1;HPM_P2
2023/05/29 00:00:17;;;;;;;3.15;2.42;;;16.90;51.00;;;;;;949384;147;27348;-75
2023/05/29 00:03:12;;;;;;;3.50;2.40;;;16.80;51.00;;;;;;924260;147;27420;-75
2023/05/29 00:05:39;;;;;;;4.87;3.05;;;16.80;51.20;;;;;;948563;147;27379;-75
2023/05/29 00:08:06;;;;;;;3.40;2.40;;;16.80;51.10;;;;;;949921;147;27326;-75
2023/05/29 00:10:32;;;;;;;3.37;2.75;;;16.70;51.20;;;;;;927644;150;27362;-74
2023/05/29 00:13:00;;;;;;;3.37;2.98;;;16.70;51.50;;;;;;926291;151;27418;-75
2023/05/29 00:15:32;;;;;;;2.87;2.40;;;16.70;51.70;;;;;;949837;147;27288;-74
2023/05/29 00:17:59;;;;;;;3.30;2.40;;;16.60;51.90;;;;;;948915;147;27304;-75
2023/05/29 00:20:25;;;;;;;5.78;3.27;;;16.60;51.90;;;;;;951432;147;27327;-76
2023/05/29 00:22:52;;;;;;;2.70;2.50;;;16.60;52.10;;;;;;932788;150;27352;-76
2023/05/29 00:25:19;;;;;;;3.08;2.60;;;16.60;52.20;;;;;;932242;149;27454;-76
2023/05/29 00:27:45;;;;;;;3.37;2.80;;;16.50;52.20;;;;;;942354;149;27476;-76
2023/05/29 00:30:34;;;;;;;4.50;2.40;;;16.50;52.40;;;;;;942088;148;27306;-76
2023/05/29 00:33:00;;;;;;;4.42;2.20;;;16.50;52.60;;;;;;942876;149;27337;-76
2023/05/29 00:35:27;;;;;;;3.90;2.70;;;16.50;52.50;;;;;;943228;149;27361;-76
2023/05/29 00:37:54;;;;;;;3.10;2.70;;;16.40;52.70;;;;;;943348;148;27369;-76
2023/05/29 00:40:21;;;;;;;2.63;2.20;;;16.40;52.90;;;;;;943035;149;27762;-76
2023/05/29 00:42:47;;;;;;;4.50;2.70;;;16.30;52.80;;;;;;943664;149;27455;-76
2023/05/29 00:45:39;;;;;;;4.33;2.70;;;16.30;53.00;;;;;;942380;149;27291;-76
2023/05/29 00:48:34;;;;;;;5.17;2.67;;;16.20;53.10;;;;;;942886;149;27368;-76
2023/05/29 00:51:01;;;;;;;3.65;2.80;;;16.20;53.00;;;;;;931630;150;27265;-76
2023/05/29 00:53:27;;;;;;;3.02;2.40;;;16.10;53.10;;;;;;934736;149;27261;-76
2023/05/29 00:55:54;;;;;;;2.63;2.27;;;16.00;53.30;;;;;;950775;147;27332;-76
2023/05/29 00:58:23;;;;;;;3.62;2.67;;;15.90;53.60;;;;;;934193;150;27402;-76
2023/05/29 01:01:18;;;;;;;3.50;2.70;;;15.90;53.90;;;;;;932818;149;27414;-75
2023/05/29 01:04:09;;;;;;;4.53;2.47;;;15.80;54.00;;;;;;929238;149;27328;-75
2023/05/29 01:06:35;;;;;;;3.40;2.20;;;15.80;53.90;;;;;;935500;148;28754;-73
2023/05/29 01:09:07;;;;;;;3.07;2.53;;;15.70;53.90;;;;;;963743;145;27490;-74
2023/05/29 01:11:49;;;;;;;2.80;2.50;;;15.70;54.20;;;;;;943096;149;27407;-74
2023/05/29 01:14:47;;;;;;;3.07;2.47;;;15.70;54.30;;;;;;946289;148;27840;-74
2023/05/29 01:17:51;;;;;;;3.73;2.73;;;15.60;54.40;;;;;;945415;148;27451;-73
2023/05/29 01:20:44;;;;;;;3.33;2.67;;;15.60;54.30;;;;;;945126;148;27858;-74
2023/05/29 01:23:28;;;;;;;4.80;2.40;;;15.50;54.30;;;;;;947035;148;27338;-73
2023/05/29 01:26:01;;;;;;;4.20;2.77;;;15.40;54.40;;;;;;941873;149;27310;-73
2023/05/29 01:28:28;;;;;;;3.73;2.73;;;15.40;54.60;;;;;;946568;149;27361;-73
2023/05/29 01:30:54;;;;;;;3.93;2.80;;;15.40;54.80;;;;;;949449;148;27335;-73
2023/05/29 01:33:40;;;;;;;3.27;2.60;;;15.30;55.00;;;;;;952060;148;27344;-72
2023/05/29 01:36:07;;;;;;;3.80;2.73;;;15.30;55.20;;;;;;952224;148;27372;-72
2023/05/29 01:38:33;;;;;;;3.43;2.77;;;15.30;55.20;;;;;;939031;148;27346;-73
2023/05/29 01:41:32;;;;;;;3.70;2.80;;;15.30;55.40;;;;;;939688;148;27336;-73
2023/05/29 01:44:03;;;;;;;3.43;2.53;;;15.30;55.60;;;;;;902802;151;27440;-74
2023/05/29 01:46:28;;;;;;;3.17;2.83;;;15.30;55.40;;;;;;939689;149;27503;-73
2023/05/29 01:48:55;;;;;;;4.03;2.93;;;15.20;55.80;;;;;;963717;146;27331;-73
2023/05/29 01:51:21;;;;;;;3.23;2.60;;;15.20;55.80;;;;;;964164;146;27418;-73
2023/05/29 01:54:13;;;;;;;4.83;3.10;;;15.20;55.90;;;;;;963752;146;27269;-73
2023/05/29 01:56:40;;;;;;;2.90;2.60;;;15.20;56.10;;;;;;960716;146;27303;-73
2023/05/29 01:59:06;;;;;;;2.87;2.47;;;15.10;56.00;;;;;;962508;148;27240;-73
2023/05/29 02:01:33;;;;;;;3.33;2.90;;;15.10;56.10;;;;;;963570;146;27413;-73
2023/05/29 02:04:00;;;;;;;5.03;2.97;;;15.10;56.30;;;;;;963829;146;27728;-73
2023/05/29 02:06:26;;;;;;;3.67;2.90;;;15.00;56.50;;;;;;963540;146;27338;-73
2023/05/29 02:08:57;;;;;;;4.37;3.10;;;15.00;56.50;;;;;;963492;146;27234;-72
2023/05/29 02:12:01;;;;;;;4.80;2.90;;;15.00;56.60;;;;;;962848;146;27338;-73
2023/05/29 02:14:48;;;;;;;5.27;2.70;;;15.00;56.60;;;;;;962329;146;27828;-73
2023/05/29 02:17:25;;;;;;;3.80;2.87;;;14.90;56.60;;;;;;935923;146;27333;-73
2023/05/29 02:19:51;;;;;;;2.90;2.60;;;14.90;56.60;;;;;;963268;146;27230;-73
2023/05/29 02:22:18;;;;;;;5.47;3.17;;;14.80;56.70;;;;;;963247;145;27410;-74
2023/05/29 02:24:56;;;;;;;4.50;2.53;;;14.80;56.90;;;;;;963804;146;27330;-74
2023/05/29 02:27:45;;;;;;;2.67;2.47;;;14.70;57.20;;;;;;953361;146;27435;-74
2023/05/29 02:30:21;;;;;;;3.10;2.80;;;14.70;57.20;;;;;;942033;149;27328;-75
2023/05/29 02:32:53;;;;;;;5.60;2.80;;;14.70;57.30;;;;;;944126;149;27312;-75
2023/05/29 02:35:22;;;;;;;4.23;3.23;;;14.60;57.40;;;;;;962996;145;27386;-75
2023/05/29 02:38:24;;;;;;;4.80;3.17;;;14.60;57.60;;;;;;944847;148;27392;-74
2023/05/29 02:40:50;;;;;;;3.60;3.27;;;14.50;57.70;;;;;;945320;148;28176;-74
2023/05/29 02:43:54;;;;;;;4.07;3.00;;;14.50;57.70;;;;;;946352;148;27356;-74
2023/05/29 02:46:21;;;;;;;2.67;2.33;;;14.50;58.00;;;;;;945420;149;27298;-74
2023/05/29 02:48:58;;;;;;;3.30;2.80;;;14.40;57.90;;;;;;947440;148;27310;-74
2023/05/29 02:51:29;;;;;;;3.13;2.83;;;14.40;58.30;;;;;;960021;146;27288;-73
2023/05/29 02:53:55;;;;;;;4.17;2.97;;;14.40;58.30;;;;;;912414;148;27292;-73
2023/05/29 02:56:25;;;;;;;3.50;3.00;;;14.40;58.60;;;;;;946905;149;27267;-73
2023/05/29 02:58:51;;;;;;;3.33;2.97;;;14.30;58.50;;;;;;941191;148;27505;-75
2023/05/29 03:01:18;;;;;;;3.93;3.07;;;14.30;58.70;;;;;;941165;149;27377;-75
2023/05/29 03:03:44;;;;;;;3.37;2.70;;;14.30;58.90;;;;;;947205;148;27415;-75
2023/05/29 03:06:33;;;;;;;3.33;2.77;;;14.20;59.00;;;;;;939986;148;27470;-75
2023/05/29 03:09:13;;;;;;;3.70;2.93;;;14.20;59.10;;;;;;926263;150;27398;-75
2023/05/29 03:11:54;;;;;;;3.13;2.83;;;14.10;59.10;;;;;;931935;149;27475;-74
2023/05/29 03:14:21;;;;;;;3.43;2.57;;;14.10;59.40;;;;;;927883;150;27338;-74
2023/05/29 03:16:49;;;;;;;3.87;2.90;;;14.10;59.20;;;;;;928465;148;27354;-75
2023/05/29 03:19:14;;;;;;;4.10;2.90;;;14.00;59.40;;;;;;935056;149;27477;-74
2023/05/29 03:21:41;;;;;;;5.07;3.30;;;14.00;59.60;;;;;;949913;146;27446;-75
2023/05/29 03:24:07;;;;;;;3.83;3.07;;;14.00;59.80;;;;;;950092;147;27445;-74
2023/05/29 03:26:36;;;;;;;3.17;2.73;;;13.90;59.80;;;;;;936987;148;27304;-74
2023/05/29 03:29:01;;;;;;;6.17;3.17;;;13.90;60.00;;;;;;934944;149;27333;-74
2023/05/29 03:31:27;;;;;;;5.10;3.17;;;13.90;60.00;;;;;;933853;150;27380;-74
2023/05/29 03:34:10;;;;;;;3.20;2.57;;;13.90;60.00;;;;;;933187;149;27399;-74
2023/05/29 03:36:37;;;;;;;4.20;2.97;;;13.90;60.20;;;;;;896428;155;27562;-74
2023/05/29 03:39:08;;;;;;;3.40;3.10;;;13.80;60.00;;;;;;882474;159;27653;-74
2023/05/29 03:41:35;;;;;;;4.23;3.03;;;13.90;60.30;;;;;;896667;156;27353;-74
2023/05/29 03:44:02;;;;;;;5.77;3.00;;;13.90;60.30;;;;;;896261;156;27579;-73
2023/05/29 03:46:28;;;;;;;5.07;2.90;;;13.90;60.50;;;;;;879743;158;27528;-73
2023/05/29 03:48:57;;;;;;;5.23;2.80;;;13.90;60.70;;;;;;882737;158;27447;-73
2023/05/29 03:51:24;;;;;;;2.97;2.57;;;14.00;60.80;;;;;;843662;165;27507;-73
2023/05/29 03:53:58;;;;;;;4.27;2.90;;;14.00;60.80;;;;;;898613;154;27387;-73
2023/05/29 03:56:25;;;;;;;2.47;2.23;;;14.10;60.80;;;;;;908271;154;27357;-73
2023/05/29 03:58:59;;;;;;;4.80;2.77;;;14.10;60.80;;;;;;910256;154;27323;-74
2023/05/29 04:01:25;;;;;;;2.77;2.40;;;14.10;60.70;;;;;;905664;154;27375;-74
2023/05/29 04:03:52;;;;;;;4.03;2.80;;;14.20;60.90;;;;;;908611;154;27328;-74
2023/05/29 04:06:29;;;;;;;4.37;2.90;;;14.20;61.00;;;;;;909253;154;27322;-73
2023/05/29 04:09:03;;;;;;;2.97;2.50;;;14.30;61.00;;;;;;904254;154;27479;-74
2023/05/29 04:11:34;;;;;;;3.40;2.80;;;14.30;60.70;;;;;;912932;153;27484;-73
2023/05/29 04:14:33;;;;;;;3.20;2.83;;;14.40;60.70;;;;;;884734;156;27643;-73
2023/05/29 04:17:00;;;;;;;3.07;2.73;;;14.50;61.00;;;;;;914236;153;27529;-73
2023/05/29 04:19:26;;;;;;;4.60;2.60;;;14.50;60.50;;;;;;886395;157;27542;-73
2023/05/29 04:21:53;;;;;;;4.50;2.60;;;14.60;60.60;;;;;;934750;148;27339;-74
2023/05/29 04:24:19;;;;;;;4.00;2.60;;;14.60;60.70;;;;;;930872;151;27446;-74
2023/05/29 04:26:46;;;;;;;5.23;2.60;;;14.70;61.00;;;;;;930917;151;27403;-74
2023/05/29 04:29:13;;;;;;;2.90;2.60;;;14.80;61.00;;;;;;930659;151;27480;-75
2023/05/29 04:32:04;;;;;;;4.20;2.57;;;14.90;61.10;;;;;;931173;151;27446;-74
2023/05/29 04:34:31;;;;;;;4.77;2.63;;;15.00;61.10;;;;;;917762;151;27922;-75
2023/05/29 04:36:58;;;;;;;3.10;2.40;;;15.10;60.80;;;;;;933519;149;27331;-75
2023/05/29 04:39:24;;;;;;;3.17;2.80;;;15.20;60.80;;;;;;932848;149;27323;-75
2023/05/29 04:41:51;;;;;;;2.90;2.60;;;15.30;60.80;;;;;;932803;149;27334;-75
2023/05/29 04:44:54;;;;;;;4.57;2.97;;;15.40;60.70;;;;;;933504;149;27466;-75
2023/05/29 04:47:22;;;;;;;2.65;2.40;;;15.50;60.60;;;;;;933211;149;27389;-75
2023/05/29 04:49:59;;;;;;;4.92;2.72;;;15.60;60.30;;;;;;933123;149;27913;-75
2023/05/29 04:52:53;;;;;;;4.77;2.60;;;15.70;60.50;;;;;;927233;149;27405;-74
2023/05/29 04:55:20;;;;;;;3.00;2.70;;;15.80;60.40;;;;;;933821;149;27412;-74
2023/05/29 04:58:12;;;;;;;2.80;2.30;;;16.10;60.70;;;;;;932617;149;27346;-74
2023/05/29 05:00:37;;;;;;;4.75;2.67;;;16.30;61.20;;;;;;918489;151;27393;-74
2023/05/29 05:03:28;;;;;;;4.12;2.65;;;16.70;61.60;;;;;;918199;151;27481;-74
2023/05/29 05:05:55;;;;;;;3.25;2.42;;;17.10;61.90;;;;;;932659;149;27724;-75
2023/05/29 05:08:21;;;;;;;3.12;2.55;;;17.60;61.90;;;;;;921989;149;27471;-74
2023/05/29 05:10:48;;;;;;;2.58;2.35;;;18.10;61.80;;;;;;945468;151;27372;-74
2023/05/29 05:13:15;;;;;;;2.95;2.42;;;18.70;61.40;;;;;;946142;148;27338;-75
2023/05/29 05:16:01;;;;;;;2.62;2.20;;;19.30;60.80;;;;;;958258;149;27442;-75
2023/05/29 05:18:52;;;;;;;3.05;2.45;;;19.90;59.90;;;;;;955690;147;27264;-75
2023/05/29 05:21:41;;;;;;;2.92;2.70;;;20.70;59.70;;;;;;945338;148;27298;-75
2023/05/29 05:24:45;;;;;;;3.10;2.40;;;21.30;58.30;;;;;;930449;149;27339;-74
2023/05/29 05:27:12;;;;;;;2.52;2.25;;;22.00;57.60;;;;;;958225;148;27365;-74
2023/05/29 05:30:16;;;;;;;2.40;2.20;;;22.70;56.70;;;;;;958449;148;27922;-74
2023/05/29 05:32:42;;;;;;;2.62;2.00;;;23.20;55.90;;;;;;957964;148;27292;-75
2023/05/29 05:35:11;;;;;;;2.42;2.22;;;23.80;55.20;;;;;;958277;148;27282;-75
2023/05/29 05:37:35;;;;;;;2.67;2.47;;;24.40;54.40;;;;;;958239;147;27352;-75
2023/05/29 05:40:39;;;;;;;2.90;2.45;;;24.90;54.00;;;;;;959013;149;27342;-75
2023/05/29 05:43:15;;;;;;;2.35;2.12;;;25.40;52.60;;;;;;954047;147;27359;-75
2023/05/29 05:45:42;;;;;;;2.77;2.33;;;25.80;51.60;;;;;;934486;149;27367;-75
2023/05/29 05:48:08;;;;;;;4.53;2.40;;;26.10;50.70;;;;;;943585;151;27312;-76
2023/05/29 05:50:34;;;;;;;3.12;2.22;;;26.40;50.20;;;;;;943125;151;27378;-75
2023/05/29 05:53:32;;;;;;;4.42;2.72;;;26.70;49.90;;;;;;944514;149;27355;-76
2023/05/29 05:55:59;;;;;;;2.47;2.27;;;27.00;49.70;;;;;;940682;151;27340;-76
2023/05/29 05:59:03;;;;;;;3.70;2.20;;;27.40;49.50;;;;;;943741;151;27366;-76
2023/05/29 06:01:29;;;;;;;2.33;2.05;;;27.80;49.00;;;;;;944074;151;27347;-76
2023/05/29 06:03:56;;;;;;;2.80;2.15;;;28.30;48.60;;;;;;944552;151;27342;-76
2023/05/29 06:06:23;;;;;;;3.35;2.30;;;28.70;48.00;;;;;;943941;151;27363;-76
2023/05/29 06:08:49;;;;;;;2.62;2.00;;;29.00;48.10;;;;;;943312;149;27492;-76
2023/05/29 06:11:17;;;;;;;3.55;2.30;;;29.40;47.30;;;;;;942912;149;27408;-74
2023/05/29 06:13:42;;;;;;;2.27;2.08;;;29.80;47.00;;;;;;943330;149;27262;-74
2023/05/29 06:16:09;;;;;;;3.08;2.70;;;30.20;46.50;;;;;;943064;148;27374;-74
2023/05/29 06:18:35;;;;;;;2.90;2.30;;;30.70;46.00;;;;;;942621;149;27322;-75
2023/05/29 06:21:02;;;;;;;2.30;2.10;;;31.10;45.50;;;;;;943083;149;27357;-75
2023/05/29 06:24:00;;;;;;;2.22;2.00;;;31.50;44.70;;;;;;934719;150;27340;-75
2023/05/29 06:26:26;;;;;;;2.85;2.55;;;32.00;44.00;;;;;;912449;151;27412;-75
2023/05/29 06:29:15;;;;;;;2.87;2.50;;;32.40;43.30;;;;;;950394;147;27436;-75
2023/05/29 06:31:41;;;;;;;2.47;2.10;;;32.70;42.60;;;;;;915391;150;27323;-75
2023/05/29 06:34:42;;;;;;;2.42;2.08;;;33.00;42.30;;;;;;927157;150;27369;-75
2023/05/29 06:37:31;;;;;;;3.65;2.37;;;33.20;41.80;;;;;;925455;149;26279;-75
2023/05/29 06:39:57;;;;;;;2.10;2.00;;;33.60;41.30;;;;;;934875;149;27390;-75
2023/05/29 06:42:24;;;;;;;2.47;2.27;;;33.80;40.70;;;;;;935489;149;26338;-75
2023/05/29 06:44:51;;;;;;;2.55;2.05;;;34.00;40.10;;;;;;935170;149;27380;-75
2023/05/29 06:47:17;;;;;;;2.27;2.02;;;34.10;39.50;;;;;;927165;150;26328;-75
2023/05/29 06:49:54;;;;;;;2.58;2.12;;;34.30;39.20;;;;;;951042;147;26154;-76
2023/05/29 06:52:21;;;;;;;2.72;2.08;;;34.40;38.90;;;;;;912922;149;26306;-76
2023/05/29 06:54:47;;;;;;;4.17;2.17;;;34.50;38.70;;;;;;950092;147;26328;-76
2023/05/29 06:57:51;;;;;;;2.35;2.02;;;34.60;38.50;;;;;;951601;147;26239;-75
2023/05/29 07:00:55;;;;;;;2.55;2.10;;;34.80;38.10;;;;;;948407;147;26154;-73
2023/05/29 07:03:21;;;;;;;2.12;1.90;;;35.00;37.70;;;;;;948219;147;26206;-75
2023/05/29 07:05:48;;;;;;;3.30;2.22;;;35.20;37.40;;;;;;951547;147;26325;-75
2023/05/29 07:08:15;;;;;;;4.28;2.00;;;35.20;37.10;;;;;;951320;147;26249;-75
2023/05/29 07:10:41;;;;;;;2.75;1.98;;;35.40;37.20;;;;;;953452;147;26276;-75
2023/05/29 07:13:08;;;;;;;2.10;1.87;;;35.60;36.90;;;;;;954207;147;26354;-75
2023/05/29 07:15:34;;;;;;;2.20;2.00;;;35.80;36.50;;;;;;967685;145;26325;-75
2023/05/29 07:18:01;;;;;;;3.08;2.02;;;36.00;36.20;;;;;;968273;145;26648;-75
2023/05/29 07:20:27;;;;;;;3.17;2.45;;;36.40;36.20;;;;;;967094;145;26193;-75
2023/05/29 07:22:54;;;;;;;2.22;2.02;;;36.60;35.80;;;;;;967926;145;26288;-76
2023/05/29 07:25:20;;;;;;;2.30;1.82;;;37.00;35.50;;;;;;968247;145;26251;-76
2023/05/29 07:27:47;;;;;;;2.22;1.90;;;37.40;35.50;;;;;;965997;145;26285;-76
2023/05/29 07:30:14;;;;;;;2.62;1.92;;;37.80;34.90;;;;;;966391;145;26241;-76
2023/05/29 07:32:40;;;;;;;2.45;2.00;;;38.10;34.50;;;;;;967777;145;26281;-76
2023/05/29 07:35:07;;;;;;;2.37;2.02;;;38.50;33.80;;;;;;966496;145;26236;-76
2023/05/29 07:37:33;;;;;;;2.20;2.00;;;38.80;33.20;;;;;;967213;145;26231;-76
2023/05/29 07:40:00;;;;;;;1.98;1.87;;;38.90;32.60;;;;;;965588;145;26241;-76
2023/05/29 07:42:27;;;;;;;3.62;2.20;;;39.10;33.00;;;;;;937830;149;26233;-76
2023/05/29 07:44:53;;;;;;;3.42;2.47;;;39.30;32.30;;;;;;967580;145;26193;-76
2023/05/29 07:47:20;;;;;;;2.55;1.82;;;39.40;32.10;;;;;;968235;145;26221;-76
2023/05/29 07:49:46;;;;;;;2.40;2.05;;;39.60;31.70;;;;;;967343;145;26325;-76
2023/05/29 07:52:13;;;;;;;3.52;2.10;;;39.90;31.60;;;;;;967318;145;26172;-76
2023/05/29 07:54:40;;;;;;;3.35;2.20;;;40.10;31.30;;;;;;967295;145;26204;-76
2023/05/29 07:57:12;;;;;;;2.20;2.05;;;40.30;31.00;;;;;;967120;145;26220;-76
2023/05/29 07:59:40;;;;;;;2.60;2.22;;;40.50;30.60;;;;;;967814;145;26260;-76
2023/05/29 08:02:06;;;;;;;2.47;2.27;;;40.60;30.10;;;;;;966272;145;26233;-76
2023/05/29 08:04:32;;;;;;;3.75;1.95;;;40.70;30.00;;;;;;967355;145;26669;-76
2023/05/29 08:06:58;;;;;;;2.70;1.80;;;40.70;29.90;;;;;;967032;145;26204;-76
2023/05/29 08:09:25;;;;;;;2.70;2.30;;;40.90;29.80;;;;;;966419;145;26342;-76
2023/05/29 08:11:52;;;;;;;2.42;2.00;;;40.90;29.50;;;;;;967710;145;26283;-76
2023/05/29 08:14:18;;;;;;;2.20;1.98;;;41.00;29.40;;;;;;969946;145;26331;-76
2023/05/29 08:16:45;;;;;;;2.35;2.15;;;41.10;29.20;;;;;;951773;148;26263;-76
2023/05/29 08:19:11;;;;;;;2.47;2.27;;;41.10;28.60;;;;;;967306;148;26195;-76
2023/05/29 08:21:38;;;;;;;1.82;1.70;;;41.10;28.90;;;;;;949563;148;26394;-76
2023/05/29 08:24:08;;;;;;;3.02;2.15;;;41.10;28.60;;;;;;950365;148;26310;-76
2023/05/29 08:26:34;;;;;;;3.72;2.17;;;41.10;28.60;;;;;;966722;145;26230;-76
2023/05/29 08:29:00;;;;;;;3.50;2.02;;;41.20;28.60;;;;;;950410;146;26309;-76
2023/05/29 08:31:27;;;;;;;2.12;1.95;;;41.30;28.60;;;;;;948380;148;26276;-76
2023/05/29 08:33:54;;;;;;;2.25;1.98;;;41.40;28.50;;;;;;949823;148;26283;-76
2023/05/29 08:36:21;;;;;;;2.47;2.12;;;41.50;28.50;;;;;;961973;146;26204;-76
2023/05/29 08:38:49;;;;;;;2.87;2.15;;;41.70;28.60;;;;;;964239;147;26253;-76
2023/05/29 08:41:16;;;;;;;2.20;1.90;;;41.80;28.40;;;;;;964851;148;26255;-76
2023/05/29 08:43:43;;;;;;;1.90;1.80;;;42.10;28.30;;;;;;961108;148;26277;-76
2023/05/29 08:46:09;;;;;;;1.95;1.82;;;42.30;28.10;;;;;;964506;148;26331;-76
2023/05/29 08:48:36;;;;;;;2.15;1.82;;;42.50;28.00;;;;;;964388;148;26670;-76
2023/05/29 08:51:02;;;;;;;2.85;2.05;;;42.60;27.80;;;;;;964813;148;26259;-77
2023/05/29 08:53:31;;;;;;;2.17;2.00;;;42.90;27.90;;;;;;964680;148;26285;-76
2023/05/29 08:55:57;;;;;;;2.02;1.90;;;43.10;27.40;;;;;;963537;148;26227;-76
2023/05/29 08:58:23;;;;;;;2.00;1.80;;;43.30;27.40;;;;;;963148;148;26245;-76
2023/05/29 09:00:49;;;;;;;2.15;1.92;;;43.50;27.20;;;;;;963378;148;26251;-76
2023/05/29 09:03:15;;;;;;;1.90;1.80;;;43.70;26.80;;;;;;964968;148;26247;-76
2023/05/29 09:05:43;;;;;;;1.90;1.65;;;43.80;26.60;;;;;;963856;147;26293;-77
2023/05/29 09:08:09;;;;;;;1.80;1.70;;;43.90;26.40;;;;;;963888;148;26212;-76
2023/05/29 09:10:35;;;;;;;2.75;1.80;;;44.00;26.10;;;;;;964472;146;26288;-75
2023/05/29 09:13:02;;;;;;;1.75;1.65;;;44.10;26.10;;;;;;969478;147;26347;-75
2023/05/29 09:15:28;;;;;;;2.47;2.00;;;44.10;25.90;;;;;;970238;147;26221;-75
2023/05/29 09:17:55;;;;;;;2.58;1.92;;;44.30;26.00;;;;;;968296;147;26231;-75
2023/05/29 09:20:24;;;;;;;2.35;1.77;;;44.30;25.80;;;;;;967933;147;26188;-75
2023/05/29 09:22:56;;;;;;;2.12;1.92;;;44.50;25.70;;;;;;968661;147;26383;-75
2023/05/29 09:25:23;;;;;;;2.37;1.90;;;44.50;25.60;;;;;;968059;147;26345;-75
2023/05/29 09:27:55;;;;;;;2.15;2.00;;;44.60;25.40;;;;;;968854;147;26233;-75
2023/05/29 09:30:44;;;;;;;2.12;1.90;;;44.70;25.60;;;;;;968409;147;26371;-75
2023/05/29 09:33:10;;;;;;;2.08;1.98;;;44.80;25.30;;;;;;969184;147;26619;-75
2023/05/29 09:35:37;;;;;;;1.95;1.75;;;44.80;25.10;;;;;;968993;147;26301;-75
2023/05/29 09:38:03;;;;;;;3.00;1.80;;;44.80;24.90;;;;;;968017;147;26319;-75
2023/05/29 09:40:31;;;;;;;3.08;2.20;;;44.80;24.90;;;;;;969017;147;27994;-75
2023/05/29 09:42:57;;;;;;;1.75;1.65;;;44.80;24.10;;;;;;968759;147;26258;-75
2023/05/29 09:45:23;;;;;;;2.20;2.00;;;44.70;24.50;;;;;;967552;147;26266;-75
2023/05/29 09:47:50;;;;;;;1.50;1.40;;;44.60;24.40;;;;;;967519;147;26211;-75
2023/05/29 09:50:22;;;;;;;2.05;1.95;;;44.50;24.40;;;;;;968765;147;26223;-75
2023/05/29 09:52:53;;;;;;;2.72;1.80;;;44.20;24.30;;;;;;969414;147;26386;-75
2023/05/29 09:55:17;;;;;;;1.82;1.72;;;43.90;24.10;;;;;;968099;147;26738;-75
2023/05/29 09:57:41;;;;;;;6.15;2.33;;;43.60;24.00;;;;;;968366;147;26198;-75
2023/05/29 10:00:12;;;;;;;2.33;2.08;;;43.10;24.10;;;;;;969160;147;26576;-75
2023/05/29 10:02:35;;;;;;;2.27;2.08;;;42.70;23.90;;;;;;968592;147;26355;-75
2023/05/29 10:05:01;;;;;;;2.98;2.67;;;42.10;23.80;;;;;;969375;147;26258;-76
2023/05/29 10:07:28;;;;;;;2.85;2.65;;;41.50;23.90;;;;;;969358;147;26281;-75
2023/05/29 10:10:01;;;;;;;2.83;2.55;;;40.90;24.20;;;;;;969615;145;26272;-75
2023/05/29 10:12:27;;;;;;;2.67;2.02;;;40.30;24.20;;;;;;959633;147;26261;-75
2023/05/29 10:14:57;;;;;;;6.75;1.90;;;39.70;24.20;;;;;;960100;147;26285;-75
2023/05/29 10:17:23;;;;;;;2.42;1.80;;;39.30;24.40;;;;;;969208;145;26235;-74
2023/05/29 10:19:49;;;;;;;2.52;2.30;;;38.70;24.30;;;;;;969374;147;27317;-74
2023/05/29 10:22:16;;;;;;;2.33;2.22;;;38.30;24.60;;;;;;969775;145;27302;-75
2023/05/29 10:24:42;;;;;;;2.58;2.37;;;37.80;24.90;;;;;;968826;147;26331;-75
2023/05/29 10:27:09;;;;;;;4.40;2.42;;;37.30;24.80;;;;;;969311;147;27306;-76
2023/05/29 10:29:38;;;;;;;2.05;1.95;;;36.90;24.70;;;;;;970060;147;27327;-75
2023/05/29 10:32:05;;;;;;;2.37;2.17;;;36.50;24.40;;;;;;968890;147;27346;-75
2023/05/29 10:34:56;;;;;;;3.52;2.37;;;36.00;24.50;;;;;;967723;145;27335;-76
2023/05/29 10:37:35;;;;;;;3.17;2.40;;;35.50;24.50;;;;;;968656;145;27464;-75
2023/05/29 10:40:07;;;;;;;2.15;2.05;;;34.90;24.50;;;;;;968816;147;27336;-75
2023/05/29 10:42:39;;;;;;;2.47;2.27;;;34.40;24.80;;;;;;969270;147;27680;-76
2023/05/29 10:45:06;;;;;;;2.17;2.00;;;34.00;25.00;;;;;;969715;145;27371;-75
2023/05/29 10:47:32;;;;;;;3.20;2.40;;;33.60;25.30;;;;;;969331;145;27391;-74
2023/05/29 10:50:02;;;;;;;3.25;2.02;;;33.20;25.50;;;;;;969781;147;27315;-74
2023/05/29 10:52:31;;;;;;;3.30;2.70;;;32.90;25.90;;;;;;969274;147;27337;-74
2023/05/29 10:54:57;;;;;;;2.40;2.20;;;32.60;25.90;;;;;;968646;147;27330;-74
2023/05/29 10:57:24;;;;;;;3.55;2.58;;;32.30;26.10;;;;;;969048;147;27325;-74
2023/05/29 11:00:00;;;;;;;2.30;2.12;;;32.00;26.40;;;;;;969901;147;27319;-74
2023/05/29 11:02:26;;;;;;;3.25;2.52;;;31.80;26.80;;;;;;968605;146;27349;-74
2023/05/29 11:05:18;;;;;;;2.52;2.33;;;31.50;27.10;;;;;;969887;145;27319;-75
2023/05/29 11:07:59;;;;;;;2.62;2.30;;;31.30;27.20;;;;;;968780;147;28066;-74
2023/05/29 11:10:47;;;;;;;2.55;2.12;;;31.20;27.40;;;;;;968016;145;27383;-74
2023/05/29 11:13:24;;;;;;;2.67;2.40;;;31.00;27.60;;;;;;968780;145;27351;-73
2023/05/29 11:15:50;;;;;;;3.00;1.92;;;30.80;27.30;;;;;;968600;145;27443;-73
2023/05/29 11:18:16;;;;;;;3.37;2.20;;;30.70;27.50;;;;;;964202;145;27435;-73
2023/05/29 11:20:43;;;;;;;2.47;2.20;;;30.50;27.80;;;;;;967226;147;27452;-73
2023/05/29 11:23:12;;;;;;;2.55;2.30;;;30.40;28.00;;;;;;968211;147;27286;-73
2023/05/29 11:25:36;;;;;;;3.52;2.75;;;30.30;28.30;;;;;;968470;147;27437;-74
2023/05/29 11:28:10;;;;;;;2.55;2.35;;;30.30;28.60;;;;;;969796;145;27660;-74
2023/05/29 11:30:32;;;;;;;4.03;2.30;;;30.20;28.60;;;;;;968251;147;27420;-74
2023/05/29 11:32:58;;;;;;;3.47;2.50;;;30.10;28.70;;;;;;969309;147;27382;-74
2023/05/29 11:35:25;;;;;;;3.10;2.30;;;30.10;28.80;;;;;;967668;147;27298;-74
2023/05/29 11:37:52;;;;;;;2.58;2.20;;;30.00;28.80;;;;;;969014;147;27330;-74
2023/05/29 11:40:18;;;;;;;2.47;2.27;;;29.90;28.90;;;;;;969122;147;27737;-73
2023/05/29 11:42:45;;;;;;;2.08;1.90;;;29.90;29.00;;;;;;969844;147;27761;-73
2023/05/29 11:45:19;;;;;;;3.42;2.47;;;29.80;29.20;;;;;;968606;147;27298;-73
2023/05/29 11:47:56;;;;;;;2.12;1.92;;;29.70;29.40;;;;;;969089;145;27347;-75
2023/05/29 11:50:22;;;;;;;3.77;2.47;;;29.60;29.50;;;;;;967887;145;27334;-76
2023/05/29 11:52:49;;;;;;;3.55;2.10;;;29.60;29.60;;;;;;967997;145;27268;-74
2023/05/29 11:55:15;;;;;;;2.65;2.20;;;29.50;29.60;;;;;;967915;145;27412;-76
2023/05/29 11:57:42;;;;;;;2.50;2.30;;;29.50;30.00;;;;;;969631;147;27274;-73
2023/05/29 12:00:10;;;;;;;2.30;2.10;;;29.50;29.90;;;;;;969126;145;27427;-73
2023/05/29 12:02:38;;;;;;;2.55;2.30;;;29.40;30.00;;;;;;968189;147;27282;-73
2023/05/29 12:05:04;;;;;;;2.58;2.30;;;29.40;30.00;;;;;;969222;147;27415;-72
2023/05/29 12:07:31;;;;;;;2.40;2.20;;;29.40;30.00;;;;;;969380;147;27428;-76
2023/05/29 12:09:57;;;;;;;3.15;2.08;;;29.40;30.00;;;;;;969571;145;27373;-76
2023/05/29 12:12:24;;;;;;;4.62;2.30;;;29.30;30.20;;;;;;969101;145;27409;-76
2023/05/29 12:14:51;;;;;;;3.47;2.20;;;29.30;30.30;;;;;;967323;147;27329;-76
2023/05/29 12:17:17;;;;;;;2.92;1.87;;;29.20;30.60;;;;;;945324;147;27357;-75
2023/05/29 12:19:44;;;;;;;2.58;2.35;;;29.20;30.70;;;;;;940327;151;27760;-76
2023/05/29 12:22:10;;;;;;;2.75;2.02;;;29.20;30.80;;;;;;940600;149;27856;-75
2023/05/29 12:24:37;;;;;;;3.35;2.70;;;29.20;30.80;;;;;;940014;149;27270;-75
2023/05/29 12:27:07;;;;;;;2.62;2.35;;;29.20;30.70;;;;;;939415;151;27337;-76
2023/05/29 12:29:36;;;;;;;2.80;2.58;;;29.30;30.70;;;;;;940518;149;27350;-75
2023/05/29 12:32:02;;;;;;;2.20;2.10;;;29.30;30.50;;;;;;940279;149;27433;-76
2023/05/29 12:34:29;;;;;;;2.60;2.30;;;29.30;30.40;;;;;;941212;151;27290;-75
2023/05/29 12:36:56;;;;;;;2.35;2.15;;;29.30;30.40;;;;;;939917;149;27415;-76
2023/05/29 12:39:24;;;;;;;4.17;2.70;;;29.30;30.60;;;;;;939563;151;27350;-76
2023/05/29 12:41:49;;;;;;;3.55;2.67;;;29.30;30.70;;;;;;941218;151;27376;-75
2023/05/29 12:44:15;;;;;;;2.37;2.05;;;29.30;30.50;;;;;;940471;149;27274;-75
2023/05/29 12:46:45;;;;;;;2.70;2.30;;;29.40;30.60;;;;;;940713;152;27372;-75
2023/05/29 12:49:11;;;;;;;2.95;2.50;;;29.40;30.40;;;;;;940863;152;27350;-76
2023/05/29 12:51:38;;;;;;;2.67;2.37;;;29.40;30.30;;;;;;941315;152;27290;-75
2023/05/29 12:54:05;;;;;;;3.87;2.50;;;29.40;30.40;;;;;;938435;149;27338;-76
2023/05/29 12:56:31;;;;;;;3.58;2.30;;;29.30;30.50;;;;;;940308;149;27285;-76
2023/05/29 12:58:58;;;;;;;2.27;2.08;;;29.30;30.50;;;;;;940283;149;27316;-75
2023/05/29 13:01:24;;;;;;;4.35;2.72;;;29.30;30.70;;;;;;940457;151;27341;-76
2023/05/29 13:03:51;;;;;;;2.55;2.20;;;29.30;30.80;;;;;;939987;149;27303;-75
2023/05/29 13:06:17;;;;;;;2.80;2.45;;;29.30;30.90;;;;;;941301;149;27415;-76
2023/05/29 13:08:44;;;;;;;2.98;2.10;;;29.40;30.90;;;;;;940007;152;27326;-76